sensor_id;sensor_type;location;lat;lon;timestamp;P1;P2;P0
47711;PMS7003;57457;51.634;5.886;2023-02-07T00:05:43;21.37;16.36;7.2
47711;PMS7003;57457;51.634;5.886;2023-02-07T00:19:03;18.73;17.12;7.64
47711;PMS7003;57457;51.634;5.886;2023-02-07T00:32:22;20.17;16.58;7.53
47711;PMS7003;57457;51.634;5.886;2023-02-07T00:45:42;12.85;14.07;6.66
47711;PMS7003;57457;51.634;5.886;2023-02-07T00:59:02;18.01;19.19;7.97
47711;PMS7003;57457;51.634;5.886;2023-02-07T01:12:21;24.49;18.65;7.97
47711;PMS7003;57457;51.634;5.886;2023-02-07T01:25:41;20.53;14.83;6.66
47711;PMS7003;57457;51.634;5.886;2023-02-07T01:39:01;27.73;17.67;7.2
47711;PMS7003;57457;51.634;5.886;2023-02-07T01:52:20;19.21;16.36;7.42
47711;PMS7003;57457;51.634;5.886;2023-02-07T02:05:40;24.73;14.62;6.77
47711;PMS7003;57457;51.634;5.886;2023-02-07T02:18:59;18.25;14.18;6.11
47711;PMS7003;57457;51.634;5.886;2023-02-07T02:32:19;12.25;13.63;6.11
47711;PMS7003;57457;51.634;5.886;2023-02-07T02:45:39;13.81;12.11;5.79
47711;PMS7003;57457;51.634;5.886;2023-02-07T02:58:58;16.45;14.29;6.0
47711;PMS7003;57457;51.634;5.886;2023-02-07T03:12:18;14.53;13.63;6.11
47711;PMS7003;57457;51.634;5.886;2023-02-07T03:25:37;12.73;14.4;5.79
47711;PMS7003;57457;51.634;5.886;2023-02-07T03:38:57;25.45;14.51;6.0
47711;PMS7003;57457;51.634;5.886;2023-02-07T03:52:17;22.93;15.71;6.11
47711;PMS7003;57457;51.634;5.886;2023-02-07T04:05:09;;;
47711;PMS7003;57457;51.634;5.886;2023-02-07T04:17:31;;;
47711;PMS7003;57457;51.634;5.886;2023-02-07T04:29:54;;;
47711;PMS7003;57457;51.634;5.886;2023-02-07T04:42:16;;;
47711;PMS7003;57457;51.634;5.886;2023-02-07T04:54:38;;;
47711;PMS7003;57457;51.634;5.886;2023-02-07T05:19:22;;;
47711;PMS7003;57457;51.634;5.886;2023-02-07T05:31:45;;;
47711;PMS7003;57457;51.634;5.886;2023-02-07T05:44:07;;;
47711;PMS7003;57457;51.634;5.886;2023-02-07T05:56:29;;;
47711;PMS7003;57457;51.634;5.886;2023-02-07T06:08:51;;;
47711;PMS7003;57457;51.634;5.886;2023-02-07T06:21:13;;;
47711;PMS7003;57457;51.634;5.886;2023-02-07T06:33:36;;;
47711;PMS7003;57457;51.634;5.886;2023-02-07T06:45:58;;;
47711;PMS7003;57457;51.634;5.886;2023-02-07T06:58:20;;;
47711;PMS7003;57457;51.634;5.886;2023-02-07T07:10:42;;;
47711;PMS7003;57457;51.634;5.886;2023-02-07T07:23:05;;;
47711;PMS7003;57457;51.634;5.886;2023-02-07T07:35:27;;;
47711;PMS7003;57457;51.634;5.886;2023-02-07T07:47:49;;;
47711;PMS7003;57457;51.634;5.886;2023-02-07T08:12:33;;;
47711;PMS7003;57457;51.634;5.886;2023-02-07T08:24:56;;;
47711;PMS7003;57457;51.634;5.886;2023-02-07T08:37:45;33.37;22.9;9.82
47711;PMS7003;57457;51.634;5.886;2023-02-07T08:51:04;33.98;24.97;10.36
47711;PMS7003;57457;51.634;5.886;2023-02-07T09:04:24;39.74;26.28;11.13
47711;PMS7003;57457;51.634;5.886;2023-02-07T09:17:44;36.02;23.88;9.27
47711;PMS7003;57457;51.634;5.886;2023-02-07T09:31:03;36.26;26.28;10.36
47711;PMS7003;57457;51.634;5.886;2023-02-07T09:57:43;36.02;27.8;12.44
47711;PMS7003;57457;51.634;5.886;2023-02-07T10:11:02;36.62;25.41;10.91
47711;PMS7003;57457;51.634;5.886;2023-02-07T10:24:22;30.85;23.55;10.04
47711;PMS7003;57457;51.634;5.886;2023-02-07T10:37:41;25.81;21.59;8.73
47711;PMS7003;57457;51.634;5.886;2023-02-07T10:51:01;22.93;20.83;8.62
47711;PMS7003;57457;51.634;5.886;2023-02-07T11:04:20;20.05;16.47;6.77
47711;PMS7003;57457;51.634;5.886;2023-02-07T11:17:40;12.85;13.31;6.0
47711;PMS7003;57457;51.634;5.886;2023-02-07T11:31:00;13.45;13.53;6.0
47711;PMS7003;57457;51.634;5.886;2023-02-07T11:44:19;15.73;13.63;6.33
47711;PMS7003;57457;51.634;5.886;2023-02-07T11:57:39;10.93;12.65;6.0
47711;PMS7003;57457;51.634;5.886;2023-02-07T12:10:58;13.93;14.83;6.0
47711;PMS7003;57457;51.634;5.886;2023-02-07T12:24:18;12.85;12.87;5.24
47711;PMS7003;57457;51.634;5.886;2023-02-07T12:37:38;8.17;10.47;4.91
47711;PMS7003;57457;51.634;5.886;2023-02-07T12:50:57;8.89;11.24;5.02
47711;PMS7003;57457;51.634;5.886;2023-02-07T13:04:17;9.73;11.56;5.24
47711;PMS7003;57457;51.634;5.886;2023-02-07T13:30:56;10.57;11.89;5.9
47711;PMS7003;57457;51.634;5.886;2023-02-07T13:57:35;11.89;13.42;6.11
47711;PMS7003;57457;51.634;5.886;2023-02-07T14:10:55;10.45;12.22;5.57
47711;PMS7003;57457;51.634;5.886;2023-02-07T14:24:15;11.17;12.98;5.68
47711;PMS7003;57457;51.634;5.886;2023-02-07T14:37:34;13.33;11.89;5.68
47711;PMS7003;57457;51.634;5.886;2023-02-07T15:04:13;12.37;11.78;5.35
47711;PMS7003;57457;51.634;5.886;2023-02-07T15:17:33;11.53;11.89;5.02
47711;PMS7003;57457;51.634;5.886;2023-02-07T15:30:53;8.05;10.36;4.7
47711;PMS7003;57457;51.634;5.886;2023-02-07T15:44:12;8.17;10.15;5.02
47711;PMS7003;57457;51.634;5.886;2023-02-07T15:57:32;7.69;10.04;4.91
47711;PMS7003;57457;51.634;5.886;2023-02-07T16:10:51;8.77;10.15;4.7
47711;PMS7003;57457;51.634;5.886;2023-02-07T16:24:11;7.93;10.15;4.8
47711;PMS7003;57457;51.634;5.886;2023-02-07T16:50:50;10.57;10.26;5.13
47711;PMS7003;57457;51.634;5.886;2023-02-07T17:04:10;18.13;12.33;5.24
47711;PMS7003;57457;51.634;5.886;2023-02-07T17:17:29;11.53;12.33;5.9
47711;PMS7003;57457;51.634;5.886;2023-02-07T17:30:49;9.85;10.58;4.8
47711;PMS7003;57457;51.634;5.886;2023-02-07T17:44:09;11.77;12.11;5.02
47711;PMS7003;57457;51.634;5.886;2023-02-07T17:57:28;12.61;11.89;5.57
47711;PMS7003;57457;51.634;5.886;2023-02-07T18:10:48;12.13;12.44;5.24
47711;PMS7003;57457;51.634;5.886;2023-02-07T18:24:08;18.13;17.01;7.53
47711;PMS7003;57457;51.634;5.886;2023-02-07T18:37:27;24.73;17.01;6.77
47711;PMS7003;57457;51.634;5.886;2023-02-07T18:50:47;17.05;14.83;6.11
47711;PMS7003;57457;51.634;5.886;2023-02-07T19:17:26;17.29;17.67;7.97
47711;PMS7003;57457;51.634;5.886;2023-02-07T19:30:46;16.33;17.45;8.51
47711;PMS7003;57457;51.634;5.886;2023-02-07T19:44:05;22.09;16.69;7.09
47711;PMS7003;57457;51.634;5.886;2023-02-07T19:57:25;16.09;14.94;6.77
47711;PMS7003;57457;51.634;5.886;2023-02-07T20:10:45;13.81;14.51;6.33
47711;PMS7003;57457;51.634;5.886;2023-02-07T20:23:37;;;
47711;PMS7003;57457;51.634;5.886;2023-02-07T20:35:59;;;
47711;PMS7003;57457;51.634;5.886;2023-02-07T20:48:21;;;
47711;PMS7003;57457;51.634;5.886;2023-02-07T21:00:43;;;
47711;PMS7003;57457;51.634;5.886;2023-02-07T21:13:06;;;
47711;PMS7003;57457;51.634;5.886;2023-02-07T21:25:28;;;
47711;PMS7003;57457;51.634;5.886;2023-02-07T21:37:50;;;
47711;PMS7003;57457;51.634;5.886;2023-02-07T21:50:12;;;
47711;PMS7003;57457;51.634;5.886;2023-02-07T22:02:34;;;
47711;PMS7003;57457;51.634;5.886;2023-02-07T22:14:57;;;
47711;PMS7003;57457;51.634;5.886;2023-02-07T22:27:19;;;
47711;PMS7003;57457;51.634;5.886;2023-02-07T22:39:41;;;
47711;PMS7003;57457;51.634;5.886;2023-02-07T22:52:03;;;
47711;PMS7003;57457;51.634;5.886;2023-02-07T23:04:26;;;
47711;PMS7003;57457;51.634;5.886;2023-02-07T23:16:48;;;
